Time;durP1;ratioP1;P1;durP2;ratioP2;P2;SDS_P1;SDS_P2;PMS_P1;PMS_P2;Temp;Humidity;BMP_temperature;BMP_pressure;BME280_temperature;BME280_humidity;BME280_pressure;Samples;Min_cycle;Max_cycle;Signal;HPM_P1;HPM_P2
2022/06/17 00:03:22;;;;;;;8.82;6.68;;;;;;;;;;10364855;28;20021;-73
2022/06/17 00:08:27;;;;;;;11.43;7.15;;;;;;;;;;10397202;28;20022;-75
2022/06/17 00:13:28;;;;;;;7.57;6.43;;;;;;;;;;10393478;28;20022;-74
2022/06/17 00:18:28;;;;;;;8.80;7.32;;;;;;;;;;10381824;28;20423;-75
2022/06/17 00:23:28;;;;;;;8.32;6.20;;;;;;;;;;10380670;28;20503;-72
2022/06/17 00:28:29;;;;;;;7.18;5.65;;;;;;;;;;10363555;28;20265;-76
2022/06/17 00:33:29;;;;;;;7.72;5.68;;;;;;;;;;10396458;28;20024;-73
2022/06/17 00:38:31;;;;;;;5.85;5.28;;;;;;;;;;10397794;28;20034;-75
2022/06/17 00:43:34;;;;;;;6.53;5.80;;;;;;;;;;10395358;28;20021;-74
2022/06/17 00:48:40;;;;;;;7.90;5.68;;;;;;;;;;10383453;28;20025;-74
2022/06/17 00:53:45;;;;;;;7.35;5.93;;;;;;;;;;10384110;28;20025;-73
2022/06/17 00:59:03;;;;;;;7.65;6.00;;;;;;;;;;10384268;28;20026;-72
2022/06/17 01:04:05;;;;;;;8.77;7.88;;;;;;;;;;10384272;28;20021;-74
2022/06/17 01:14:33;;;;;;;8.60;6.43;;;;;;;;;;10389864;28;20076;-72
2022/06/17 01:19:40;;;;;;;9.20;7.30;;;;;;;;;;10404396;28;20046;-74
2022/06/17 01:24:41;;;;;;;10.07;5.88;;;;;;;;;;10376984;28;20037;-74
2022/06/17 01:29:41;;;;;;;9.93;6.32;;;;;;;;;;10366042;28;20029;-73
2022/06/17 01:34:42;;;;;;;7.15;5.43;;;;;;;;;;10371819;28;20052;-75
2022/06/17 01:39:42;;;;;;;7.50;6.10;;;;;;;;;;10397430;28;20041;-73
2022/06/17 01:44:42;;;;;;;10.00;5.73;;;;;;;;;;10377900;28;20269;-76
2022/06/17 01:49:47;;;;;;;7.67;5.90;;;;;;;;;;10342483;28;20018;-75
2022/06/17 01:54:50;;;;;;;8.48;5.78;;;;;;;;;;10383289;28;20554;-74
2022/06/17 01:59:53;;;;;;;9.75;6.40;;;;;;;;;;10372985;28;20058;-77
2022/06/17 02:04:57;;;;;;;6.68;5.32;;;;;;;;;;10406429;28;20017;-75
2022/06/17 02:09:57;;;;;;;6.15;5.47;;;;;;;;;;10382984;28;20112;-73
2022/06/17 02:14:58;;;;;;;8.82;5.82;;;;;;;;;;10349526;28;20040;-79
2022/06/17 02:19:58;;;;;;;10.07;5.80;;;;;;;;;;10366299;28;20584;-79
2022/06/17 02:25:00;;;;;;;11.47;5.67;;;;;;;;;;10348401;28;20034;-74
2022/06/17 02:30:01;;;;;;;9.70;5.68;;;;;;;;;;10348809;28;20374;-77
2022/06/17 02:35:11;;;;;;;14.18;6.10;;;;;;;;;;10348058;28;20026;-74
2022/06/17 02:40:35;;;;;;;9.60;6.43;;;;;;;;;;10368338;28;20052;-78
2022/06/17 02:45:39;;;;;;;6.78;5.30;;;;;;;;;;10354373;28;20056;-74
2022/06/17 02:50:39;;;;;;;8.85;5.53;;;;;;;;;;10355313;28;20029;-72
2022/06/17 02:55:40;;;;;;;8.25;6.43;;;;;;;;;;10363942;28;20032;-73
2022/06/17 03:00:41;;;;;;;7.68;6.57;;;;;;;;;;10351790;28;20040;-74
2022/06/17 03:05:43;;;;;;;9.48;6.03;;;;;;;;;;10345870;28;20028;-74
2022/06/17 03:10:43;;;;;;;13.07;5.68;;;;;;;;;;10346950;28;20060;-80
2022/06/17 03:15:45;;;;;;;7.20;6.38;;;;;;;;;;10364150;28;20044;-75
2022/06/17 03:20:47;;;;;;;5.72;4.80;;;;;;;;;;10369874;28;20047;-74
2022/06/17 03:25:50;;;;;;;7.28;4.50;;;;;;;;;;10386850;28;20033;-74
2022/06/17 03:30:54;;;;;;;6.43;5.03;;;;;;;;;;10386814;28;20113;-75
2022/06/17 03:36:00;;;;;;;7.13;5.72;;;;;;;;;;10404608;28;20075;-74
2022/06/17 03:41:03;;;;;;;7.55;5.32;;;;;;;;;;10403220;28;20021;-72
2022/06/17 03:46:05;;;;;;;10.73;7.07;;;;;;;;;;10386424;28;20124;-77
2022/06/17 03:51:10;;;;;;;10.20;6.85;;;;;;;;;;10402717;28;20478;-74
2022/06/17 03:56:16;;;;;;;13.75;6.30;;;;;;;;;;10400459;28;20060;-73
2022/06/17 04:01:19;;;;;;;13.48;5.40;;;;;;;;;;10380475;28;20028;-72
2022/06/17 04:06:22;;;;;;;10.18;5.88;;;;;;;;;;10381690;28;20100;-71
2022/06/17 04:11:27;;;;;;;6.65;5.30;;;;;;;;;;10402223;28;20581;-72
2022/06/17 04:16:27;;;;;;;11.48;5.00;;;;;;;;;;10403187;28;20021;-75
2022/06/17 04:21:28;;;;;;;7.63;4.63;;;;;;;;;;10391786;28;20076;-76
2022/06/17 04:26:30;;;;;;;7.22;4.95;;;;;;;;;;10344267;28;20113;-77
2022/06/17 04:31:32;;;;;;;8.70;4.57;;;;;;;;;;10377155;28;20454;-73
2022/06/17 04:36:32;;;;;;;8.75;4.40;;;;;;;;;;10343548;28;20076;-72
2022/06/17 04:41:35;;;;;;;6.53;3.88;;;;;;;;;;10361763;28;20025;-73
2022/06/17 04:46:38;;;;;;;7.97;4.90;;;;;;;;;;10361793;28;20077;-70
2022/06/17 04:51:38;;;;;;;8.00;4.38;;;;;;;;;;10344189;28;20034;-69
2022/06/17 04:56:43;;;;;;;6.50;4.70;;;;;;;;;;10361042;28;20492;-74
2022/06/17 05:01:43;;;;;;;9.38;5.13;;;;;;;;;;10343812;28;20481;-72
2022/06/17 05:06:44;;;;;;;10.27;5.37;;;;;;;;;;10361106;28;20025;-73
2022/06/17 05:11:47;;;;;;;10.35;4.18;;;;;;;;;;10377336;28;20026;-72
2022/06/17 05:16:48;;;;;;;11.68;5.30;;;;;;;;;;10361393;28;20074;-73
2022/06/17 05:21:49;;;;;;;7.68;4.38;;;;;;;;;;10375648;28;20133;-73
2022/06/17 05:26:50;;;;;;;9.40;4.70;;;;;;;;;;10391353;28;20040;-75
2022/06/17 05:31:51;;;;;;;6.72;4.97;;;;;;;;;;10375034;28;20026;-74
2022/06/17 05:36:52;;;;;;;11.27;6.07;;;;;;;;;;10366099;28;20501;-73
2022/06/17 05:41:52;;;;;;;6.38;4.60;;;;;;;;;;10367207;28;20057;-73
2022/06/17 05:46:53;;;;;;;6.80;4.47;;;;;;;;;;10368170;28;20029;-73
2022/06/17 05:51:53;;;;;;;11.65;5.13;;;;;;;;;;10366713;28;20029;-73
2022/06/17 05:56:53;;;;;;;15.33;5.57;;;;;;;;;;10334140;28;20041;-73
2022/06/17 06:01:53;;;;;;;8.82;5.30;;;;;;;;;;10367162;28;20297;-74
2022/06/17 06:06:54;;;;;;;4.85;3.13;;;;;;;;;;10366209;28;20022;-72
2022/06/17 06:11:54;;;;;;;9.77;3.65;;;;;;;;;;10366205;28;20488;-72
2022/06/17 06:16:54;;;;;;;3.42;2.83;;;;;;;;;;10367285;28;20538;-71
2022/06/17 06:21:54;;;;;;;10.38;3.35;;;;;;;;;;10379386;28;20483;-72
2022/06/17 06:26:55;;;;;;;5.68;2.90;;;;;;;;;;10380281;28;20041;-71
2022/06/17 06:31:55;;;;;;;5.07;2.78;;;;;;;;;;10356381;28;20014;-73
2022/06/17 06:36:55;;;;;;;4.95;2.67;;;;;;;;;;10372220;28;20033;-72
2022/06/17 06:41:55;;;;;;;7.40;3.53;;;;;;;;;;10404927;28;20022;-78
2022/06/17 06:46:56;;;;;;;7.65;3.17;;;;;;;;;;10379902;28;20034;-75
2022/06/17 06:51:56;;;;;;;17.60;3.70;;;;;;;;;;10348545;28;20026;-72
2022/06/17 06:56:59;;;;;;;8.75;3.20;;;;;;;;;;10404739;28;20128;-69
2022/06/17 07:02:00;;;;;;;6.63;3.10;;;;;;;;;;10366996;28;20042;-72
2022/06/17 07:07:00;;;;;;;6.10;3.08;;;;;;;;;;10347916;28;20018;-75
2022/06/17 07:12:00;;;;;;;6.78;3.25;;;;;;;;;;10355390;28;20026;-75
2022/06/17 07:17:00;;;;;;;8.43;4.50;;;;;;;;;;10380477;28;20030;-71
2022/06/17 07:22:01;;;;;;;17.45;5.13;;;;;;;;;;10359791;28;20029;-72
2022/06/17 07:27:01;;;;;;;8.63;3.60;;;;;;;;;;10347255;28;20140;-78
2022/06/17 07:32:01;;;;;;;9.33;3.83;;;;;;;;;;10362670;28;20790;-72
2022/06/17 07:42:25;;;;;;;8.07;3.20;;;;;;;;;;10364682;28;20030;-72
2022/06/17 07:47:26;;;;;;;4.72;3.13;;;;;;;;;;10363393;28;20032;-70
2022/06/17 07:52:26;;;;;;;9.40;3.67;;;;;;;;;;10346290;28;20476;-72
2022/06/17 07:57:26;;;;;;;11.93;3.78;;;;;;;;;;10346009;28;20029;-73
2022/06/17 08:02:26;;;;;;;12.17;5.10;;;;;;;;;;10344991;28;20022;-74
2022/06/17 08:07:28;;;;;;;8.25;4.00;;;;;;;;;;10345627;28;20006;-72
2022/06/17 08:12:28;;;;;;;8.63;3.50;;;;;;;;;;10344960;28;20029;-73
2022/06/17 08:17:30;;;;;;;9.13;3.33;;;;;;;;;;10361509;28;20021;-71
2022/06/17 08:22:32;;;;;;;9.38;4.97;;;;;;;;;;10399921;28;20052;-71
2022/06/17 08:27:39;;;;;;;5.05;3.38;;;;;;;;;;10369004;28;20021;-75
2022/06/17 08:32:46;;;;;;;9.40;3.80;;;;;;;;;;10385307;28;20032;-77
2022/06/17 08:37:47;;;;;;;6.70;3.70;;;;;;;;;;10401042;28;20456;-72
2022/06/17 08:42:48;;;;;;;9.10;4.32;;;;;;;;;;10385047;28;20033;-73
2022/06/17 08:47:51;;;;;;;8.30;3.90;;;;;;;;;;10384683;28;20499;-73
2022/06/17 08:53:02;;;;;;;7.35;4.05;;;;;;;;;;10384248;28;20757;-72
2022/06/17 08:58:17;;;;;;;5.60;3.35;;;;;;;;;;10384466;28;20056;-70
2022/06/17 09:03:38;;;;;;;9.55;4.15;;;;;;;;;;10408511;28;20083;-69
2022/06/17 09:08:38;;;;;;;9.55;3.35;;;;;;;;;;10358930;28;20124;-73
2022/06/17 09:14:04;;;;;;;8.35;3.42;;;;;;;;;;10397618;28;20505;-72
2022/06/17 09:19:05;;;;;;;9.35;3.15;;;;;;;;;;10397547;28;20531;-71
2022/06/17 09:24:07;;;;;;;6.85;3.60;;;;;;;;;;10397483;28;20407;-72
2022/06/17 09:29:07;;;;;;;6.75;4.55;;;;;;;;;;10415006;28;20017;-72
2022/06/17 09:34:11;;;;;;;8.32;3.97;;;;;;;;;;10386584;28;20398;-74
2022/06/17 09:39:14;;;;;;;8.27;3.80;;;;;;;;;;10412836;28;20021;-72
2022/06/17 09:44:20;;;;;;;6.53;3.70;;;;;;;;;;10397560;28;20547;-73
2022/06/17 09:49:36;;;;;;;8.20;3.50;;;;;;;;;;10396641;28;20733;-70
2022/06/17 09:54:43;;;;;;;7.78;3.42;;;;;;;;;;10396900;28;20017;-73
2022/06/17 09:59:45;;;;;;;6.90;3.13;;;;;;;;;;10397208;28;20030;-72
2022/06/17 10:04:45;;;;;;;12.15;2.95;;;;;;;;;;10396732;28;20056;-73
2022/06/17 10:09:49;;;;;;;5.40;2.90;;;;;;;;;;10399596;28;20116;-72
2022/06/17 10:14:49;;;;;;;6.13;2.75;;;;;;;;;;10391562;28;20052;-71
2022/06/17 10:19:56;;;;;;;6.60;2.83;;;;;;;;;;10389231;28;20038;-74
2022/06/17 10:24:57;;;;;;;7.35;3.22;;;;;;;;;;10389317;28;20404;-73
2022/06/17 10:30:01;;;;;;;6.38;2.88;;;;;;;;;;10390698;28;20017;-71
2022/06/17 10:35:02;;;;;;;5.00;2.67;;;;;;;;;;10407557;28;20048;-70
2022/06/17 10:40:05;;;;;;;7.18;2.65;;;;;;;;;;10388799;28;20495;-71
2022/06/17 10:45:12;;;;;;;6.32;2.50;;;;;;;;;;10388841;28;20075;-76
2022/06/17 10:50:22;;;;;;;7.97;2.60;;;;;;;;;;10387965;28;20014;-75
2022/06/17 10:55:43;;;;;;;6.80;2.85;;;;;;;;;;10406451;28;20006;-73
2022/06/17 11:00:45;;;;;;;8.80;2.50;;;;;;;;;;10406759;28;20013;-72
2022/06/17 11:05:52;;;;;;;6.80;3.25;;;;;;;;;;10407069;28;20053;-72
2022/06/17 11:10:54;;;;;;;4.00;2.75;;;;;;;;;;10388757;28;20013;-73
2022/06/17 11:15:56;;;;;;;9.63;4.70;;;;;;;;;;10388336;28;20025;-71
2022/06/17 11:21:02;;;;;;;6.60;4.10;;;;;;;;;;10387475;28;20059;-71
2022/06/17 11:26:14;;;;;;;5.97;4.43;;;;;;;;;;10371283;28;20478;-70
2022/06/17 11:31:14;;;;;;;8.70;4.03;;;;;;;;;;10405047;28;20024;-71
2022/06/17 11:36:17;;;;;;;6.03;4.25;;;;;;;;;;10390264;28;20360;-71
2022/06/17 11:41:23;;;;;;;5.97;4.75;;;;;;;;;;10386706;28;20116;-72
2022/06/17 11:46:25;;;;;;;6.00;4.78;;;;;;;;;;10385409;28;20087;-71
2022/06/17 11:51:31;;;;;;;8.35;5.50;;;;;;;;;;10386790;28;20043;-73
2022/06/17 11:56:31;;;;;;;14.43;5.90;;;;;;;;;;10386172;28;20140;-73
2022/06/17 12:01:32;;;;;;;8.77;5.63;;;;;;;;;;10385800;28;20021;-72
2022/06/17 12:06:46;;;;;;;13.60;6.15;;;;;;;;;;10385932;28;20041;-72
2022/06/17 12:11:52;;;;;;;11.02;5.82;;;;;;;;;;10386313;28;20052;-72
2022/06/17 12:16:52;;;;;;;12.55;6.28;;;;;;;;;;10385417;28;20368;-74
2022/06/17 12:21:56;;;;;;;8.95;4.90;;;;;;;;;;10385513;28;20049;-72
2022/06/17 12:27:05;;;;;;;11.40;4.72;;;;;;;;;;10384850;28;20041;-74
2022/06/17 12:32:24;;;;;;;5.55;4.47;;;;;;;;;;10380933;28;20045;-74
2022/06/17 12:37:48;;;;;;;6.45;3.10;;;;;;;;;;10392926;28;20022;-74
2022/06/17 12:43:12;;;;;;;4.20;3.25;;;;;;;;;;10367513;28;20068;-73
2022/06/17 12:48:18;;;;;;;6.30;2.85;;;;;;;;;;10357270;28;20491;-72
2022/06/17 12:53:37;;;;;;;4.80;3.38;;;;;;;;;;10377927;28;20030;-71
2022/06/17 12:58:56;;;;;;;4.10;2.42;;;;;;;;;;10391927;28;20503;-72
2022/06/17 13:03:59;;;;;;;7.80;3.25;;;;;;;;;;10394581;28;20139;-74
2022/06/17 13:08:59;;;;;;;3.97;3.40;;;;;;;;;;10391563;28;20148;-71
2022/06/17 13:14:15;;;;;;;4.47;3.30;;;;;;;;;;10378365;28;20018;-73
2022/06/17 13:19:31;;;;;;;6.45;3.65;;;;;;;;;;10378076;28;20658;-74
2022/06/17 13:24:38;;;;;;;5.85;3.60;;;;;;;;;;10359648;28;20121;-73
2022/06/17 13:29:47;;;;;;;4.70;3.13;;;;;;;;;;10359253;28;20041;-70
2022/06/17 13:34:57;;;;;;;5.40;3.95;;;;;;;;;;10377451;28;20028;-72
2022/06/17 13:40:05;;;;;;;4.50;3.20;;;;;;;;;;10375247;28;20021;-72
2022/06/17 13:45:12;;;;;;;5.85;3.13;;;;;;;;;;10374196;28;20411;-74
2022/06/17 13:50:18;;;;;;;4.63;2.77;;;;;;;;;;10400443;28;20037;-72
2022/06/17 13:55:19;;;;;;;4.22;2.83;;;;;;;;;;10385823;28;20029;-71
2022/06/17 14:00:19;;;;;;;4.00;2.88;;;;;;;;;;10401568;28;20037;-72
2022/06/17 14:05:28;;;;;;;6.60;3.15;;;;;;;;;;10383740;28;20784;-75
2022/06/17 14:10:31;;;;;;;5.93;3.55;;;;;;;;;;10402874;28;20742;-72
2022/06/17 14:15:33;;;;;;;5.93;3.10;;;;;;;;;;10383000;28;20030;-72
2022/06/17 14:20:36;;;;;;;4.63;2.85;;;;;;;;;;10382430;28;20555;-75
2022/06/17 14:25:44;;;;;;;6.47;3.28;;;;;;;;;;10383306;28;20029;-74
2022/06/17 14:30:46;;;;;;;8.68;3.08;;;;;;;;;;10381718;28;20399;-73
2022/06/17 14:35:51;;;;;;;5.47;3.30;;;;;;;;;;10380425;28;20040;-73
2022/06/17 14:46:19;;;;;;;5.38;3.70;;;;;;;;;;10402322;28;20049;-72
2022/06/17 14:51:32;;;;;;;3.88;3.05;;;;;;;;;;10401452;28;20629;-78
2022/06/17 14:56:36;;;;;;;4.93;2.60;;;;;;;;;;10385088;28;20512;-74
2022/06/17 15:01:42;;;;;;;5.68;2.90;;;;;;;;;;10383787;28;20543;-73
2022/06/17 15:06:43;;;;;;;4.15;3.20;;;;;;;;;;10402190;28;20057;-75
2022/06/17 15:11:52;;;;;;;7.57;3.50;;;;;;;;;;10400436;28;20132;-74
2022/06/17 15:16:54;;;;;;;5.07;3.58;;;;;;;;;;10402007;28;20087;-73
2022/06/17 15:22:00;;;;;;;4.68;3.60;;;;;;;;;;10367815;28;20045;-72
2022/06/17 15:27:26;;;;;;;5.90;3.38;;;;;;;;;;10375682;28;21766;-72
2022/06/17 15:32:29;;;;;;;5.30;3.17;;;;;;;;;;10378029;28;20045;-79
2022/06/17 15:37:31;;;;;;;3.80;3.22;;;;;;;;;;10377647;28;20071;-79
2022/06/17 15:42:32;;;;;;;7.00;3.88;;;;;;;;;;10395520;28;20056;-75
2022/06/17 15:47:32;;;;;;;32.13;5.13;;;;;;;;;;10374529;28;20120;-72
2022/06/17 15:52:38;;;;;;;20.20;5.93;;;;;;;;;;10376124;28;20108;-73
2022/06/17 15:57:51;;;;;;;7.10;4.82;;;;;;;;;;10376041;28;20029;-73
2022/06/17 16:02:53;;;;;;;11.75;5.10;;;;;;;;;;10375158;28;20049;-72
2022/06/17 16:13:11;;;;;;;15.15;7.00;;;;;;;;;;10325996;28;20125;-70
2022/06/17 16:18:27;;;;;;;13.90;8.23;;;;;;;;;;10338204;28;20032;-73
2022/06/17 16:23:34;;;;;;;13.90;9.07;;;;;;;;;;10341644;28;20151;-75
2022/06/17 16:28:38;;;;;;;18.65;10.40;;;;;;;;;;10359665;28;20021;-74
2022/06/17 16:33:39;;;;;;;15.80;10.57;;;;;;;;;;10342016;28;20029;-76
2022/06/17 16:38:51;;;;;;;15.82;10.50;;;;;;;;;;10350298;28;20029;-76
2022/06/17 16:44:07;;;;;;;15.68;9.00;;;;;;;;;;10349481;28;20558;-75
2022/06/17 16:49:07;;;;;;;14.23;9.02;;;;;;;;;;10383756;28;20064;-82
2022/06/17 16:54:12;;;;;;;13.35;8.88;;;;;;;;;;10366800;28;20112;-76
2022/06/17 16:59:13;;;;;;;18.23;10.32;;;;;;;;;;10354345;28;20647;-79
2022/06/17 17:04:15;;;;;;;18.90;10.95;;;;;;;;;;10358343;28;20025;-74
2022/06/17 17:09:15;;;;;;;13.07;8.25;;;;;;;;;;10355782;28;20061;-75
2022/06/17 17:14:15;;;;;;;13.70;8.90;;;;;;;;;;10360609;28;20069;-72
2022/06/17 17:19:16;;;;;;;13.90;8.75;;;;;;;;;;10374309;28;20025;-73
2022/06/17 17:24:21;;;;;;;16.90;9.90;;;;;;;;;;10380999;28;20032;-74
2022/06/17 17:29:22;;;;;;;11.95;9.15;;;;;;;;;;10385338;28;20037;-73
2022/06/17 17:34:22;;;;;;;13.88;8.93;;;;;;;;;;10362397;28;20033;-73
2022/06/17 17:39:23;;;;;;;14.38;9.38;;;;;;;;;;10411456;28;20047;-80
2022/06/17 17:44:24;;;;;;;11.85;8.18;;;;;;;;;;10392611;28;20091;-77
2022/06/17 17:49:24;;;;;;;14.53;9.27;;;;;;;;;;10410437;28;20022;-75
2022/06/17 17:54:24;;;;;;;12.70;7.88;;;;;;;;;;10405616;28;20031;-75
2022/06/17 17:59:26;;;;;;;11.35;8.48;;;;;;;;;;10384722;28;20057;-77
2022/06/17 18:04:27;;;;;;;16.17;9.02;;;;;;;;;;10409327;28;20045;-72
2022/06/17 18:09:27;;;;;;;15.73;9.05;;;;;;;;;;10394174;28;20061;-73
2022/06/17 18:14:28;;;;;;;14.40;10.73;;;;;;;;;;10351133;28;20113;-76
2022/06/17 18:19:28;;;;;;;17.10;10.18;;;;;;;;;;10350071;28;20136;-71
2022/06/17 18:24:28;;;;;;;14.15;9.32;;;;;;;;;;10349148;28;20471;-75
2022/06/17 18:29:33;;;;;;;27.33;9.77;;;;;;;;;;10350986;28;20045;-77
2022/06/17 18:34:38;;;;;;;16.65;10.55;;;;;;;;;;10346848;28;20029;-77
2022/06/17 18:39:38;;;;;;;17.00;10.73;;;;;;;;;;10347796;28;20044;-75
2022/06/17 18:44:39;;;;;;;14.13;10.83;;;;;;;;;;10350048;28;20037;-71
2022/06/17 18:49:39;;;;;;;15.00;10.38;;;;;;;;;;10348311;28;20095;-77
2022/06/17 18:54:41;;;;;;;14.65;10.10;;;;;;;;;;10332569;28;20030;-74
2022/06/17 18:59:41;;;;;;;15.77;10.95;;;;;;;;;;10329750;28;20037;-75
2022/06/17 19:04:42;;;;;;;20.75;11.40;;;;;;;;;;10365701;28;20026;-72
2022/06/17 19:20:20;;;;;;;16.38;10.48;;;;;;;;;;10404746;28;20025;-72
2022/06/17 19:25:20;;;;;;;27.53;10.03;;;;;;;;;;10408162;28;20025;-74
2022/06/17 19:30:21;;;;;;;16.15;9.40;;;;;;;;;;10372660;28;20021;-77
2022/06/17 19:35:25;;;;;;;18.65;10.77;;;;;;;;;;10407927;28;20862;-77
2022/06/17 19:40:26;;;;;;;16.83;10.48;;;;;;;;;;10386001;28;20041;-78
2022/06/17 19:45:28;;;;;;;17.13;11.02;;;;;;;;;;10391282;28;20036;-75
2022/06/17 19:50:28;;;;;;;23.25;9.15;;;;;;;;;;10412741;28;20840;-74
2022/06/17 19:55:30;;;;;;;25.50;13.32;;;;;;;;;;10404537;28;20325;-74
2022/06/17 20:00:30;;;;;;;17.25;9.27;;;;;;;;;;10388135;28;20036;-78
2022/06/17 20:05:31;;;;;;;17.75;8.40;;;;;;;;;;10404947;28;20484;-79
2022/06/17 20:10:31;;;;;;;20.83;8.73;;;;;;;;;;10402945;28;20499;-77
2022/06/17 20:15:33;;;;;;;19.37;9.27;;;;;;;;;;10387675;28;20434;-75
2022/06/17 20:20:35;;;;;;;13.75;8.80;;;;;;;;;;10385598;28;20117;-73
2022/06/17 20:25:36;;;;;;;16.38;9.63;;;;;;;;;;10390428;28;20115;-73
2022/06/17 20:30:39;;;;;;;17.65;9.70;;;;;;;;;;10386168;28;20036;-77
2022/06/17 20:35:39;;;;;;;13.73;9.30;;;;;;;;;;10389326;28;20131;-74
2022/06/17 20:40:42;;;;;;;11.98;8.02;;;;;;;;;;10387538;28;20108;-77
2022/06/17 20:51:07;;;;;;;14.68;8.23;;;;;;;;;;10405157;28;20033;-72
2022/06/17 20:56:18;;;;;;;14.02;8.20;;;;;;;;;;10383089;28;20434;-73
2022/06/17 21:01:19;;;;;;;15.50;8.75;;;;;;;;;;10394324;28;20017;-75
2022/06/17 21:06:21;;;;;;;14.60;10.38;;;;;;;;;;10399652;28;20033;-73
2022/06/17 21:11:22;;;;;;;15.05;9.93;;;;;;;;;;10386929;28;20080;-75
2022/06/17 21:16:22;;;;;;;14.55;10.13;;;;;;;;;;10387472;28;20457;-73
2022/06/17 21:21:23;;;;;;;14.00;12.20;;;;;;;;;;10404700;28;20037;-74
2022/06/17 21:26:27;;;;;;;19.55;11.88;;;;;;;;;;10384846;28;20029;-73
2022/06/17 21:31:28;;;;;;;18.10;11.43;;;;;;;;;;10388359;28;20125;-73
2022/06/17 21:36:29;;;;;;;18.73;11.43;;;;;;;;;;10390073;28;20095;-75
2022/06/17 21:41:31;;;;;;;20.75;11.63;;;;;;;;;;10403789;28;20037;-73
2022/06/17 21:46:32;;;;;;;17.98;11.68;;;;;;;;;;10384206;28;20025;-77
2022/06/17 21:51:35;;;;;;;16.77;11.80;;;;;;;;;;10386347;28;20400;-73
2022/06/17 21:56:39;;;;;;;15.40;12.50;;;;;;;;;;10387737;28;20092;-72
2022/06/17 22:01:39;;;;;;;13.45;11.43;;;;;;;;;;10402728;28;20030;-74
2022/06/17 22:06:39;;;;;;;23.48;12.35;;;;;;;;;;10385856;28;20033;-74
2022/06/17 22:17:00;;;;;;;25.25;13.35;;;;;;;;;;10404628;28;20033;-73
2022/06/17 22:22:01;;;;;;;14.55;11.93;;;;;;;;;;10385815;28;20037;-72
2022/06/17 22:27:02;;;;;;;19.48;12.82;;;;;;;;;;10385639;28;20021;-75
2022/06/17 22:32:04;;;;;;;15.63;11.50;;;;;;;;;;10385500;28;20045;-74
2022/06/17 22:37:09;;;;;;;15.13;12.55;;;;;;;;;;10385609;28;20025;-75
2022/06/17 22:42:14;;;;;;;17.80;12.05;;;;;;;;;;10398787;28;20464;-75
2022/06/17 22:47:17;;;;;;;20.35;12.93;;;;;;;;;;10385283;28;20037;-70
2022/06/17 22:52:19;;;;;;;15.80;11.85;;;;;;;;;;10400918;28;20079;-73
2022/06/17 22:57:20;;;;;;;23.40;11.45;;;;;;;;;;10385157;28;20554;-80
2022/06/17 23:02:22;;;;;;;16.88;11.77;;;;;;;;;;10384715;28;20029;-72
2022/06/17 23:07:24;;;;;;;15.90;11.13;;;;;;;;;;10384312;28;20049;-74
2022/06/17 23:12:25;;;;;;;16.70;12.63;;;;;;;;;;10383825;28;20043;-72
2022/06/17 23:17:25;;;;;;;17.63;11.73;;;;;;;;;;10384279;28;20025;-73
2022/06/17 23:22:31;;;;;;;18.70;12.07;;;;;;;;;;10400976;28;20104;-73
2022/06/17 23:27:31;;;;;;;16.30;12.45;;;;;;;;;;10399430;28;20091;-74
2022/06/17 23:32:31;;;;;;;14.52;11.95;;;;;;;;;;10401864;28;20021;-74
2022/06/17 23:37:31;;;;;;;15.68;11.48;;;;;;;;;;10384076;28;20112;-73
2022/06/17 23:42:32;;;;;;;16.65;12.27;;;;;;;;;;10399915;28;20023;-71
2022/06/17 23:47:36;;;;;;;15.00;12.13;;;;;;;;;;10399514;28;20076;-73
2022/06/17 23:52:36;;;;;;;21.65;12.52;;;;;;;;;;10382946;28;20476;-73
2022/06/17 23:57:36;;;;;;;16.17;12.80;;;;;;;;;;10399079;28;20136;-75
